sensor_id;sensor_type;location;lat;lon;timestamp;P1;durP1;ratioP1;P2;durP2;ratioP2
7685;SDS011;3885;51.474;-2.576;2022-11-04T00:00:43;3.77;;;3.40;;
7685;SDS011;3885;51.474;-2.576;2022-11-04T00:03:10;4.30;;;3.30;;
7685;SDS011;3885;51.474;-2.576;2022-11-04T00:05:37;9.90;;;4.03;;
7685;SDS011;3885;51.474;-2.576;2022-11-04T00:08:04;4.70;;;3.23;;
7685;SDS011;3885;51.474;-2.576;2022-11-04T00:10:53;12.23;;;3.47;;
7685;SDS011;3885;51.474;-2.576;2022-11-04T00:13:38;13.80;;;3.37;;
7685;SDS011;3885;51.474;-2.576;2022-11-04T00:16:05;10.30;;;2.80;;
7685;SDS011;3885;51.474;-2.576;2022-11-04T00:18:50;7.80;;;3.50;;
7685;SDS011;3885;51.474;-2.576;2022-11-04T00:21:17;5.93;;;2.73;;
7685;SDS011;3885;51.474;-2.576;2022-11-04T00:24:02;3.60;;;2.80;;
7685;SDS011;3885;51.474;-2.576;2022-11-04T00:26:48;10.60;;;2.53;;
7685;SDS011;3885;51.474;-2.576;2022-11-04T00:29:32;3.83;;;3.07;;
7685;SDS011;3885;51.474;-2.576;2022-11-04T00:31:59;7.97;;;3.53;;
7685;SDS011;3885;51.474;-2.576;2022-11-04T00:34:43;2.90;;;2.10;;
7685;SDS011;3885;51.474;-2.576;2022-11-04T00:37:10;6.00;;;2.93;;
7685;SDS011;3885;51.474;-2.576;2022-11-04T00:39:37;4.03;;;2.90;;
7685;SDS011;3885;51.474;-2.576;2022-11-04T00:42:05;8.83;;;3.60;;
7685;SDS011;3885;51.474;-2.576;2022-11-04T00:44:32;6.40;;;3.67;;
7685;SDS011;3885;51.474;-2.576;2022-11-04T00:46:59;3.63;;;2.73;;
7685;SDS011;3885;51.474;-2.576;2022-11-04T00:49:26;7.00;;;2.80;;
7685;SDS011;3885;51.474;-2.576;2022-11-04T00:51:53;7.53;;;3.57;;
7685;SDS011;3885;51.474;-2.576;2022-11-04T00:54:20;3.57;;;2.80;;
7685;SDS011;3885;51.474;-2.576;2022-11-04T00:56:47;2.83;;;2.63;;
7685;SDS011;3885;51.474;-2.576;2022-11-04T00:59:15;5.40;;;2.73;;
7685;SDS011;3885;51.474;-2.576;2022-11-04T01:01:42;3.77;;;2.37;;
7685;SDS011;3885;51.474;-2.576;2022-11-04T01:04:09;10.10;;;2.30;;
7685;SDS011;3885;51.474;-2.576;2022-11-04T01:06:36;2.70;;;2.30;;
7685;SDS011;3885;51.474;-2.576;2022-11-04T01:09:04;2.90;;;2.20;;
7685;SDS011;3885;51.474;-2.576;2022-11-04T01:11:33;5.73;;;2.90;;
7685;SDS011;3885;51.474;-2.576;2022-11-04T01:14:00;5.07;;;2.40;;
7685;SDS011;3885;51.474;-2.576;2022-11-04T01:16:28;3.67;;;2.73;;
7685;SDS011;3885;51.474;-2.576;2022-11-04T01:18:55;8.17;;;2.17;;
7685;SDS011;3885;51.474;-2.576;2022-11-04T01:21:23;2.77;;;1.93;;
7685;SDS011;3885;51.474;-2.576;2022-11-04T01:23:50;2.23;;;2.03;;
7685;SDS011;3885;51.474;-2.576;2022-11-04T01:26:18;5.77;;;2.80;;
7685;SDS011;3885;51.474;-2.576;2022-11-04T01:28:46;8.57;;;2.30;;
7685;SDS011;3885;51.474;-2.576;2022-11-04T01:31:15;5.40;;;1.77;;
7685;SDS011;3885;51.474;-2.576;2022-11-04T01:33:47;4.50;;;2.13;;
7685;SDS011;3885;51.474;-2.576;2022-11-04T01:36:15;5.20;;;2.20;;
7685;SDS011;3885;51.474;-2.576;2022-11-04T01:38:42;1.77;;;1.63;;
7685;SDS011;3885;51.474;-2.576;2022-11-04T01:41:10;3.40;;;1.80;;
7685;SDS011;3885;51.474;-2.576;2022-11-04T01:43:43;2.00;;;1.87;;
7685;SDS011;3885;51.474;-2.576;2022-11-04T01:46:16;4.87;;;1.80;;
7685;SDS011;3885;51.474;-2.576;2022-11-04T01:48:54;9.03;;;2.13;;
7685;SDS011;3885;51.474;-2.576;2022-11-04T01:51:24;5.87;;;2.27;;
7685;SDS011;3885;51.474;-2.576;2022-11-04T01:53:52;2.40;;;1.67;;
7685;SDS011;3885;51.474;-2.576;2022-11-04T01:56:21;1.50;;;1.40;;
7685;SDS011;3885;51.474;-2.576;2022-11-04T01:58:51;1.77;;;1.60;;
7685;SDS011;3885;51.474;-2.576;2022-11-04T02:01:21;1.97;;;1.47;;
7685;SDS011;3885;51.474;-2.576;2022-11-04T02:03:49;2.07;;;1.20;;
7685;SDS011;3885;51.474;-2.576;2022-11-04T02:06:20;4.60;;;1.27;;
7685;SDS011;3885;51.474;-2.576;2022-11-04T02:08:48;9.63;;;1.93;;
7685;SDS011;3885;51.474;-2.576;2022-11-04T02:11:15;5.27;;;1.47;;
7685;SDS011;3885;51.474;-2.576;2022-11-04T02:13:55;2.47;;;1.93;;
7685;SDS011;3885;51.474;-2.576;2022-11-04T02:16:23;11.73;;;1.80;;
7685;SDS011;3885;51.474;-2.576;2022-11-04T02:18:59;2.83;;;1.57;;
7685;SDS011;3885;51.474;-2.576;2022-11-04T02:24:43;1.77;;;1.67;;
7685;SDS011;3885;51.474;-2.576;2022-11-04T02:27:30;4.23;;;2.30;;
7685;SDS011;3885;51.474;-2.576;2022-11-04T02:30:07;11.40;;;3.10;;
7685;SDS011;3885;51.474;-2.576;2022-11-04T02:32:39;7.67;;;2.40;;
7685;SDS011;3885;51.474;-2.576;2022-11-04T02:35:39;7.23;;;3.00;;
7685;SDS011;3885;51.474;-2.576;2022-11-04T02:38:14;2.77;;;2.20;;
7685;SDS011;3885;51.474;-2.576;2022-11-04T02:40:49;6.43;;;2.07;;
7685;SDS011;3885;51.474;-2.576;2022-11-04T02:43:22;5.10;;;2.33;;
7685;SDS011;3885;51.474;-2.576;2022-11-04T02:45:58;6.73;;;2.50;;
7685;SDS011;3885;51.474;-2.576;2022-11-04T02:48:30;8.80;;;4.00;;
7685;SDS011;3885;51.474;-2.576;2022-11-04T02:51:04;4.57;;;2.10;;
7685;SDS011;3885;51.474;-2.576;2022-11-04T02:53:37;6.40;;;2.40;;
7685;SDS011;3885;51.474;-2.576;2022-11-04T02:56:06;6.43;;;3.13;;
7685;SDS011;3885;51.474;-2.576;2022-11-04T02:58:36;3.00;;;2.70;;
7685;SDS011;3885;51.474;-2.576;2022-11-04T03:01:08;6.00;;;3.07;;
7685;SDS011;3885;51.474;-2.576;2022-11-04T03:03:40;5.70;;;2.30;;
7685;SDS011;3885;51.474;-2.576;2022-11-04T03:06:11;8.90;;;2.80;;
7685;SDS011;3885;51.474;-2.576;2022-11-04T03:08:46;5.80;;;3.13;;
7685;SDS011;3885;51.474;-2.576;2022-11-04T03:11:16;7.00;;;3.60;;
7685;SDS011;3885;51.474;-2.576;2022-11-04T03:13:46;11.30;;;3.60;;
7685;SDS011;3885;51.474;-2.576;2022-11-04T03:16:17;13.63;;;3.70;;
7685;SDS011;3885;51.474;-2.576;2022-11-04T03:18:49;4.87;;;3.50;;
7685;SDS011;3885;51.474;-2.576;2022-11-04T03:21:23;4.80;;;3.13;;
7685;SDS011;3885;51.474;-2.576;2022-11-04T03:23:53;14.50;;;3.00;;
7685;SDS011;3885;51.474;-2.576;2022-11-04T03:26:21;5.90;;;2.70;;
7685;SDS011;3885;51.474;-2.576;2022-11-04T03:28:54;5.03;;;3.20;;
7685;SDS011;3885;51.474;-2.576;2022-11-04T03:31:32;4.63;;;3.10;;
7685;SDS011;3885;51.474;-2.576;2022-11-04T03:34:06;7.83;;;2.93;;
7685;SDS011;3885;51.474;-2.576;2022-11-04T03:36:33;3.43;;;2.27;;
7685;SDS011;3885;51.474;-2.576;2022-11-04T03:39:00;5.57;;;2.47;;
7685;SDS011;3885;51.474;-2.576;2022-11-04T03:41:28;8.40;;;2.20;;
7685;SDS011;3885;51.474;-2.576;2022-11-04T03:43:59;5.87;;;3.53;;
7685;SDS011;3885;51.474;-2.576;2022-11-04T03:46:27;8.63;;;3.27;;
7685;SDS011;3885;51.474;-2.576;2022-11-04T03:48:55;5.93;;;3.00;;
7685;SDS011;3885;51.474;-2.576;2022-11-04T03:51:24;3.93;;;2.37;;
7685;SDS011;3885;51.474;-2.576;2022-11-04T03:53:51;5.40;;;2.83;;
7685;SDS011;3885;51.474;-2.576;2022-11-04T03:56:38;3.20;;;2.80;;
7685;SDS011;3885;51.474;-2.576;2022-11-04T03:59:29;4.87;;;2.07;;
7685;SDS011;3885;51.474;-2.576;2022-11-04T04:02:12;3.07;;;2.87;;
7685;SDS011;3885;51.474;-2.576;2022-11-04T04:04:45;3.00;;;2.70;;
7685;SDS011;3885;51.474;-2.576;2022-11-04T04:07:19;2.80;;;2.57;;
7685;SDS011;3885;51.474;-2.576;2022-11-04T04:09:53;3.77;;;2.57;;
7685;SDS011;3885;51.474;-2.576;2022-11-04T04:12:25;6.83;;;3.20;;
7685;SDS011;3885;51.474;-2.576;2022-11-04T04:14:58;3.30;;;2.93;;
7685;SDS011;3885;51.474;-2.576;2022-11-04T04:17:31;6.43;;;3.30;;
7685;SDS011;3885;51.474;-2.576;2022-11-04T04:20:05;5.40;;;3.33;;
7685;SDS011;3885;51.474;-2.576;2022-11-04T04:22:37;6.40;;;3.40;;
7685;SDS011;3885;51.474;-2.576;2022-11-04T04:25:07;6.10;;;3.90;;
7685;SDS011;3885;51.474;-2.576;2022-11-04T04:27:54;9.50;;;4.00;;
7685;SDS011;3885;51.474;-2.576;2022-11-04T04:30:22;13.07;;;4.30;;
7685;SDS011;3885;51.474;-2.576;2022-11-04T04:32:50;9.63;;;3.20;;
7685;SDS011;3885;51.474;-2.576;2022-11-04T04:35:23;6.90;;;3.57;;
7685;SDS011;3885;51.474;-2.576;2022-11-04T04:38:11;5.63;;;3.60;;
7685;SDS011;3885;51.474;-2.576;2022-11-04T04:41:01;5.97;;;3.70;;
7685;SDS011;3885;51.474;-2.576;2022-11-04T04:43:49;11.57;;;2.97;;
7685;SDS011;3885;51.474;-2.576;2022-11-04T04:46:34;6.97;;;3.73;;
7685;SDS011;3885;51.474;-2.576;2022-11-04T04:49:03;6.80;;;3.77;;
7685;SDS011;3885;51.474;-2.576;2022-11-04T04:51:32;5.97;;;3.27;;
7685;SDS011;3885;51.474;-2.576;2022-11-04T04:54:01;17.83;;;3.50;;
7685;SDS011;3885;51.474;-2.576;2022-11-04T04:56:28;6.57;;;3.20;;
7685;SDS011;3885;51.474;-2.576;2022-11-04T04:58:55;4.27;;;3.33;;
7685;SDS011;3885;51.474;-2.576;2022-11-04T05:01:22;5.77;;;3.80;;
7685;SDS011;3885;51.474;-2.576;2022-11-04T05:03:49;5.97;;;3.63;;
7685;SDS011;3885;51.474;-2.576;2022-11-04T05:06:16;4.80;;;3.87;;
7685;SDS011;3885;51.474;-2.576;2022-11-04T05:08:44;11.17;;;4.33;;
7685;SDS011;3885;51.474;-2.576;2022-11-04T05:11:11;5.43;;;3.83;;
7685;SDS011;3885;51.474;-2.576;2022-11-04T05:13:38;7.80;;;4.27;;
7685;SDS011;3885;51.474;-2.576;2022-11-04T05:16:06;9.40;;;3.93;;
7685;SDS011;3885;51.474;-2.576;2022-11-04T05:18:34;8.60;;;4.20;;
7685;SDS011;3885;51.474;-2.576;2022-11-04T05:21:02;9.87;;;4.30;;
7685;SDS011;3885;51.474;-2.576;2022-11-04T05:23:30;11.93;;;4.50;;
7685;SDS011;3885;51.474;-2.576;2022-11-04T05:25:58;10.00;;;4.17;;
7685;SDS011;3885;51.474;-2.576;2022-11-04T05:28:25;12.30;;;3.57;;
7685;SDS011;3885;51.474;-2.576;2022-11-04T05:30:52;17.67;;;4.23;;
7685;SDS011;3885;51.474;-2.576;2022-11-04T05:33:19;14.73;;;4.17;;
7685;SDS011;3885;51.474;-2.576;2022-11-04T05:35:46;4.47;;;3.37;;
7685;SDS011;3885;51.474;-2.576;2022-11-04T05:38:13;9.97;;;3.97;;
7685;SDS011;3885;51.474;-2.576;2022-11-04T05:40:39;8.63;;;4.60;;
7685;SDS011;3885;51.474;-2.576;2022-11-04T05:43:08;10.40;;;3.40;;
7685;SDS011;3885;51.474;-2.576;2022-11-04T05:45:35;7.60;;;3.80;;
7685;SDS011;3885;51.474;-2.576;2022-11-04T05:48:02;7.77;;;3.87;;
7685;SDS011;3885;51.474;-2.576;2022-11-04T05:50:31;5.27;;;3.40;;
7685;SDS011;3885;51.474;-2.576;2022-11-04T05:52:58;5.10;;;3.10;;
7685;SDS011;3885;51.474;-2.576;2022-11-04T05:55:26;6.13;;;2.90;;
7685;SDS011;3885;51.474;-2.576;2022-11-04T05:57:53;10.70;;;3.77;;
7685;SDS011;3885;51.474;-2.576;2022-11-04T06:00:23;4.40;;;3.63;;
7685;SDS011;3885;51.474;-2.576;2022-11-04T06:02:50;3.90;;;3.10;;
7685;SDS011;3885;51.474;-2.576;2022-11-04T06:05:17;4.57;;;2.87;;
7685;SDS011;3885;51.474;-2.576;2022-11-04T06:07:44;3.73;;;2.93;;
7685;SDS011;3885;51.474;-2.576;2022-11-04T06:10:11;8.10;;;3.00;;
7685;SDS011;3885;51.474;-2.576;2022-11-04T06:12:38;6.23;;;3.40;;
7685;SDS011;3885;51.474;-2.576;2022-11-04T06:15:05;6.23;;;3.30;;
7685;SDS011;3885;51.474;-2.576;2022-11-04T06:17:34;5.27;;;3.43;;
7685;SDS011;3885;51.474;-2.576;2022-11-04T06:20:02;5.37;;;2.60;;
7685;SDS011;3885;51.474;-2.576;2022-11-04T06:22:30;6.87;;;3.00;;
7685;SDS011;3885;51.474;-2.576;2022-11-04T06:24:57;6.90;;;3.13;;
7685;SDS011;3885;51.474;-2.576;2022-11-04T06:27:24;4.10;;;2.70;;
7685;SDS011;3885;51.474;-2.576;2022-11-04T06:29:51;7.60;;;3.00;;
7685;SDS011;3885;51.474;-2.576;2022-11-04T06:32:18;13.70;;;4.90;;
7685;SDS011;3885;51.474;-2.576;2022-11-04T06:34:46;7.90;;;4.70;;
7685;SDS011;3885;51.474;-2.576;2022-11-04T06:37:13;7.63;;;3.23;;
7685;SDS011;3885;51.474;-2.576;2022-11-04T06:39:40;4.43;;;2.80;;
7685;SDS011;3885;51.474;-2.576;2022-11-04T06:42:07;3.23;;;2.83;;
7685;SDS011;3885;51.474;-2.576;2022-11-04T06:44:34;3.43;;;2.43;;
7685;SDS011;3885;51.474;-2.576;2022-11-04T06:47:01;3.40;;;2.97;;
7685;SDS011;3885;51.474;-2.576;2022-11-04T06:49:28;3.27;;;2.63;;
7685;SDS011;3885;51.474;-2.576;2022-11-04T06:51:56;2.93;;;1.83;;
7685;SDS011;3885;51.474;-2.576;2022-11-04T06:54:24;3.00;;;2.20;;
7685;SDS011;3885;51.474;-2.576;2022-11-04T06:56:51;8.63;;;3.00;;
7685;SDS011;3885;51.474;-2.576;2022-11-04T06:59:18;4.13;;;1.70;;
7685;SDS011;3885;51.474;-2.576;2022-11-04T07:01:46;5.93;;;1.60;;
7685;SDS011;3885;51.474;-2.576;2022-11-04T07:04:14;7.37;;;2.20;;
7685;SDS011;3885;51.474;-2.576;2022-11-04T07:06:41;5.63;;;1.77;;
7685;SDS011;3885;51.474;-2.576;2022-11-04T07:09:11;2.80;;;2.60;;
7685;SDS011;3885;51.474;-2.576;2022-11-04T07:11:40;7.83;;;2.40;;
7685;SDS011;3885;51.474;-2.576;2022-11-04T07:14:07;3.73;;;1.87;;
7685;SDS011;3885;51.474;-2.576;2022-11-04T07:16:35;6.37;;;2.73;;
7685;SDS011;3885;51.474;-2.576;2022-11-04T07:19:02;2.87;;;1.87;;
7685;SDS011;3885;51.474;-2.576;2022-11-04T07:21:29;9.63;;;1.90;;
7685;SDS011;3885;51.474;-2.576;2022-11-04T07:23:56;3.77;;;1.97;;
7685;SDS011;3885;51.474;-2.576;2022-11-04T07:26:25;5.67;;;1.73;;
7685;SDS011;3885;51.474;-2.576;2022-11-04T07:28:51;3.27;;;2.00;;
7685;SDS011;3885;51.474;-2.576;2022-11-04T07:31:18;2.77;;;1.77;;
7685;SDS011;3885;51.474;-2.576;2022-11-04T07:33:46;2.50;;;1.80;;
7685;SDS011;3885;51.474;-2.576;2022-11-04T07:36:15;1.80;;;1.70;;
7685;SDS011;3885;51.474;-2.576;2022-11-04T07:38:42;5.67;;;2.03;;
7685;SDS011;3885;51.474;-2.576;2022-11-04T07:41:10;5.13;;;2.30;;
7685;SDS011;3885;51.474;-2.576;2022-11-04T07:43:38;7.70;;;1.77;;
7685;SDS011;3885;51.474;-2.576;2022-11-04T07:46:06;1.43;;;1.20;;
7685;SDS011;3885;51.474;-2.576;2022-11-04T07:48:34;6.17;;;1.97;;
7685;SDS011;3885;51.474;-2.576;2022-11-04T07:51:02;6.07;;;2.50;;
7685;SDS011;3885;51.474;-2.576;2022-11-04T07:53:30;3.53;;;2.43;;
7685;SDS011;3885;51.474;-2.576;2022-11-04T07:55:58;14.50;;;2.10;;
7685;SDS011;3885;51.474;-2.576;2022-11-04T07:58:25;1.90;;;1.80;;
7685;SDS011;3885;51.474;-2.576;2022-11-04T08:00:57;5.50;;;2.40;;
7685;SDS011;3885;51.474;-2.576;2022-11-04T08:03:25;4.00;;;1.53;;
7685;SDS011;3885;51.474;-2.576;2022-11-04T08:05:55;2.40;;;1.60;;
7685;SDS011;3885;51.474;-2.576;2022-11-04T08:08:22;1.00;;;0.90;;
7685;SDS011;3885;51.474;-2.576;2022-11-04T08:10:52;2.23;;;1.27;;
7685;SDS011;3885;51.474;-2.576;2022-11-04T08:13:20;10.03;;;1.33;;
7685;SDS011;3885;51.474;-2.576;2022-11-04T08:15:47;4.87;;;1.57;;
7685;SDS011;3885;51.474;-2.576;2022-11-04T08:18:15;1.40;;;1.30;;
7685;SDS011;3885;51.474;-2.576;2022-11-04T08:20:46;4.03;;;1.57;;
7685;SDS011;3885;51.474;-2.576;2022-11-04T08:23:14;2.57;;;1.57;;
7685;SDS011;3885;51.474;-2.576;2022-11-04T08:25:41;5.60;;;1.40;;
7685;SDS011;3885;51.474;-2.576;2022-11-04T08:28:08;1.50;;;1.13;;
7685;SDS011;3885;51.474;-2.576;2022-11-04T08:30:37;2.30;;;1.80;;
7685;SDS011;3885;51.474;-2.576;2022-11-04T08:33:04;1.80;;;1.40;;
7685;SDS011;3885;51.474;-2.576;2022-11-04T08:35:33;3.07;;;1.60;;
7685;SDS011;3885;51.474;-2.576;2022-11-04T08:38:00;1.93;;;1.33;;
7685;SDS011;3885;51.474;-2.576;2022-11-04T08:40:27;6.57;;;1.90;;
7685;SDS011;3885;51.474;-2.576;2022-11-04T08:42:54;5.03;;;1.67;;
7685;SDS011;3885;51.474;-2.576;2022-11-04T08:45:20;7.60;;;2.07;;
7685;SDS011;3885;51.474;-2.576;2022-11-04T08:47:47;8.43;;;1.83;;
7685;SDS011;3885;51.474;-2.576;2022-11-04T08:50:14;7.00;;;4.00;;
7685;SDS011;3885;51.474;-2.576;2022-11-04T08:52:43;2.57;;;1.67;;
7685;SDS011;3885;51.474;-2.576;2022-11-04T08:55:10;12.40;;;1.73;;
7685;SDS011;3885;51.474;-2.576;2022-11-04T08:57:37;5.33;;;2.10;;
7685;SDS011;3885;51.474;-2.576;2022-11-04T09:00:04;5.67;;;2.17;;
7685;SDS011;3885;51.474;-2.576;2022-11-04T09:02:31;4.50;;;2.10;;
7685;SDS011;3885;51.474;-2.576;2022-11-04T09:04:58;2.33;;;1.83;;
7685;SDS011;3885;51.474;-2.576;2022-11-04T09:07:26;3.70;;;1.87;;
7685;SDS011;3885;51.474;-2.576;2022-11-04T09:09:54;4.40;;;1.90;;
7685;SDS011;3885;51.474;-2.576;2022-11-04T09:12:21;11.80;;;3.00;;
7685;SDS011;3885;51.474;-2.576;2022-11-04T09:14:48;7.63;;;2.43;;
7685;SDS011;3885;51.474;-2.576;2022-11-04T09:17:15;5.77;;;2.00;;
7685;SDS011;3885;51.474;-2.576;2022-11-04T09:19:42;6.43;;;2.57;;
7685;SDS011;3885;51.474;-2.576;2022-11-04T09:22:09;5.33;;;2.67;;
7685;SDS011;3885;51.474;-2.576;2022-11-04T09:24:35;4.87;;;2.50;;
7685;SDS011;3885;51.474;-2.576;2022-11-04T09:27:04;5.23;;;2.13;;
7685;SDS011;3885;51.474;-2.576;2022-11-04T09:29:31;1.93;;;1.70;;
7685;SDS011;3885;51.474;-2.576;2022-11-04T09:32:00;6.90;;;2.23;;
7685;SDS011;3885;51.474;-2.576;2022-11-04T09:34:27;4.50;;;1.30;;
7685;SDS011;3885;51.474;-2.576;2022-11-04T09:36:55;3.17;;;1.97;;
7685;SDS011;3885;51.474;-2.576;2022-11-04T09:39:22;1.90;;;1.70;;
7685;SDS011;3885;51.474;-2.576;2022-11-04T09:42:08;5.20;;;1.30;;
7685;SDS011;3885;51.474;-2.576;2022-11-04T09:44:50;2.30;;;1.50;;
7685;SDS011;3885;51.474;-2.576;2022-11-04T09:47:22;9.13;;;1.27;;
7685;SDS011;3885;51.474;-2.576;2022-11-04T09:49:52;4.40;;;1.10;;
7685;SDS011;3885;51.474;-2.576;2022-11-04T09:52:23;7.17;;;1.70;;
7685;SDS011;3885;51.474;-2.576;2022-11-04T09:54:53;2.00;;;1.23;;
7685;SDS011;3885;51.474;-2.576;2022-11-04T09:57:26;7.93;;;1.10;;
7685;SDS011;3885;51.474;-2.576;2022-11-04T09:59:53;4.40;;;1.20;;
7685;SDS011;3885;51.474;-2.576;2022-11-04T10:02:24;8.33;;;1.43;;
7685;SDS011;3885;51.474;-2.576;2022-11-04T10:05:00;4.53;;;1.23;;
7685;SDS011;3885;51.474;-2.576;2022-11-04T10:07:41;4.17;;;1.07;;
7685;SDS011;3885;51.474;-2.576;2022-11-04T10:10:20;4.00;;;1.30;;
7685;SDS011;3885;51.474;-2.576;2022-11-04T10:12:59;5.30;;;1.30;;
7685;SDS011;3885;51.474;-2.576;2022-11-04T10:18:42;6.70;;;1.07;;
7685;SDS011;3885;51.474;-2.576;2022-11-04T10:21:21;3.13;;;1.10;;
7685;SDS011;3885;51.474;-2.576;2022-11-04T10:24:04;6.60;;;1.37;;
7685;SDS011;3885;51.474;-2.576;2022-11-04T10:26:39;4.13;;;1.30;;
7685;SDS011;3885;51.474;-2.576;2022-11-04T10:29:12;7.93;;;1.60;;
7685;SDS011;3885;51.474;-2.576;2022-11-04T10:31:42;1.03;;;0.77;;
7685;SDS011;3885;51.474;-2.576;2022-11-04T10:34:16;3.50;;;1.00;;
7685;SDS011;3885;51.474;-2.576;2022-11-04T10:36:55;6.63;;;1.07;;
7685;SDS011;3885;51.474;-2.576;2022-11-04T10:39:25;1.77;;;1.10;;
7685;SDS011;3885;51.474;-2.576;2022-11-04T10:41:54;1.20;;;1.10;;
7685;SDS011;3885;51.474;-2.576;2022-11-04T10:44:24;2.67;;;0.97;;
7685;SDS011;3885;51.474;-2.576;2022-11-04T10:46:54;3.90;;;1.00;;
7685;SDS011;3885;51.474;-2.576;2022-11-04T10:52:19;2.10;;;1.07;;
7685;SDS011;3885;51.474;-2.576;2022-11-04T10:54:47;3.63;;;0.90;;
7685;SDS011;3885;51.474;-2.576;2022-11-04T10:57:15;2.50;;;0.80;;
7685;SDS011;3885;51.474;-2.576;2022-11-04T10:59:49;1.77;;;0.80;;
7685;SDS011;3885;51.474;-2.576;2022-11-04T11:02:19;2.33;;;0.90;;
7685;SDS011;3885;51.474;-2.576;2022-11-04T11:05:13;2.43;;;1.00;;
7685;SDS011;3885;51.474;-2.576;2022-11-04T11:07:48;8.60;;;1.47;;
7685;SDS011;3885;51.474;-2.576;2022-11-04T11:10:18;5.37;;;1.00;;
7685;SDS011;3885;51.474;-2.576;2022-11-04T11:12:51;2.40;;;1.00;;
7685;SDS011;3885;51.474;-2.576;2022-11-04T11:15:32;1.67;;;0.80;;
7685;SDS011;3885;51.474;-2.576;2022-11-04T11:18:10;3.30;;;0.97;;
7685;SDS011;3885;51.474;-2.576;2022-11-04T11:20:39;1.33;;;0.97;;
7685;SDS011;3885;51.474;-2.576;2022-11-04T11:25:59;1.57;;;0.90;;
7685;SDS011;3885;51.474;-2.576;2022-11-04T11:28:27;2.50;;;1.13;;
7685;SDS011;3885;51.474;-2.576;2022-11-04T11:30:58;6.10;;;0.80;;
7685;SDS011;3885;51.474;-2.576;2022-11-04T11:33:28;6.10;;;1.00;;
7685;SDS011;3885;51.474;-2.576;2022-11-04T11:35:57;1.57;;;1.00;;
7685;SDS011;3885;51.474;-2.576;2022-11-04T11:38:28;2.33;;;0.90;;
7685;SDS011;3885;51.474;-2.576;2022-11-04T11:41:02;1.37;;;0.80;;
7685;SDS011;3885;51.474;-2.576;2022-11-04T11:43:32;6.70;;;0.93;;
7685;SDS011;3885;51.474;-2.576;2022-11-04T11:46:03;7.17;;;1.00;;
7685;SDS011;3885;51.474;-2.576;2022-11-04T11:48:31;4.97;;;1.30;;
7685;SDS011;3885;51.474;-2.576;2022-11-04T11:51:05;4.97;;;1.23;;
7685;SDS011;3885;51.474;-2.576;2022-11-04T11:53:32;4.43;;;1.20;;
7685;SDS011;3885;51.474;-2.576;2022-11-04T11:56:06;2.97;;;0.90;;
7685;SDS011;3885;51.474;-2.576;2022-11-04T11:58:40;3.17;;;1.07;;
7685;SDS011;3885;51.474;-2.576;2022-11-04T12:01:12;6.83;;;1.10;;
7685;SDS011;3885;51.474;-2.576;2022-11-04T12:03:45;1.10;;;0.80;;
7685;SDS011;3885;51.474;-2.576;2022-11-04T12:06:19;3.80;;;1.60;;
7685;SDS011;3885;51.474;-2.576;2022-11-04T12:08:56;2.93;;;1.27;;
7685;SDS011;3885;51.474;-2.576;2022-11-04T12:11:40;7.77;;;1.67;;
7685;SDS011;3885;51.474;-2.576;2022-11-04T12:14:18;1.50;;;1.00;;
7685;SDS011;3885;51.474;-2.576;2022-11-04T12:16:57;2.83;;;1.00;;
7685;SDS011;3885;51.474;-2.576;2022-11-04T12:19:33;5.13;;;0.80;;
7685;SDS011;3885;51.474;-2.576;2022-11-04T12:22:12;4.90;;;1.63;;
7685;SDS011;3885;51.474;-2.576;2022-11-04T12:24:47;2.60;;;1.30;;
7685;SDS011;3885;51.474;-2.576;2022-11-04T12:27:22;2.30;;;1.20;;
7685;SDS011;3885;51.474;-2.576;2022-11-04T12:29:59;1.30;;;0.90;;
7685;SDS011;3885;51.474;-2.576;2022-11-04T12:32:36;7.23;;;1.20;;
7685;SDS011;3885;51.474;-2.576;2022-11-04T12:35:18;0.90;;;0.80;;
7685;SDS011;3885;51.474;-2.576;2022-11-04T12:37:58;0.93;;;0.93;;
7685;SDS011;3885;51.474;-2.576;2022-11-04T12:40:34;3.13;;;1.00;;
7685;SDS011;3885;51.474;-2.576;2022-11-04T12:43:13;2.13;;;0.97;;
7685;SDS011;3885;51.474;-2.576;2022-11-04T12:45:53;3.70;;;1.10;;
7685;SDS011;3885;51.474;-2.576;2022-11-04T12:48:39;8.33;;;1.80;;
7685;SDS011;3885;51.474;-2.576;2022-11-04T12:51:18;2.07;;;1.20;;
7685;SDS011;3885;51.474;-2.576;2022-11-04T12:54:07;3.90;;;1.40;;
7685;SDS011;3885;51.474;-2.576;2022-11-04T12:56:48;6.80;;;0.87;;
7685;SDS011;3885;51.474;-2.576;2022-11-04T13:02:20;5.37;;;1.20;;
7685;SDS011;3885;51.474;-2.576;2022-11-04T13:04:54;4.70;;;1.00;;
7685;SDS011;3885;51.474;-2.576;2022-11-04T13:07:28;2.03;;;0.87;;
7685;SDS011;3885;51.474;-2.576;2022-11-04T13:09:58;2.10;;;0.70;;
7685;SDS011;3885;51.474;-2.576;2022-11-04T13:12:33;3.57;;;1.10;;
7685;SDS011;3885;51.474;-2.576;2022-11-04T13:15:04;2.57;;;1.33;;
7685;SDS011;3885;51.474;-2.576;2022-11-04T13:17:39;5.13;;;1.10;;
7685;SDS011;3885;51.474;-2.576;2022-11-04T13:20:14;3.40;;;0.90;;
7685;SDS011;3885;51.474;-2.576;2022-11-04T13:22:49;6.03;;;1.60;;
7685;SDS011;3885;51.474;-2.576;2022-11-04T13:25:18;4.13;;;1.00;;
7685;SDS011;3885;51.474;-2.576;2022-11-04T13:27:53;6.03;;;1.00;;
7685;SDS011;3885;51.474;-2.576;2022-11-04T13:30:22;3.80;;;1.13;;
7685;SDS011;3885;51.474;-2.576;2022-11-04T13:32:56;2.20;;;0.97;;
7685;SDS011;3885;51.474;-2.576;2022-11-04T13:35:30;8.93;;;1.20;;
7685;SDS011;3885;51.474;-2.576;2022-11-04T13:38:03;7.43;;;2.00;;
7685;SDS011;3885;51.474;-2.576;2022-11-04T13:40:39;5.53;;;3.03;;
7685;SDS011;3885;51.474;-2.576;2022-11-04T13:43:21;12.30;;;4.23;;
7685;SDS011;3885;51.474;-2.576;2022-11-04T13:46:04;3.13;;;1.20;;
7685;SDS011;3885;51.474;-2.576;2022-11-04T13:48:48;2.97;;;0.93;;
7685;SDS011;3885;51.474;-2.576;2022-11-04T13:51:31;0.70;;;0.70;;
7685;SDS011;3885;51.474;-2.576;2022-11-04T13:54:02;2.97;;;0.90;;
7685;SDS011;3885;51.474;-2.576;2022-11-04T13:56:31;6.80;;;0.70;;
7685;SDS011;3885;51.474;-2.576;2022-11-04T13:59:01;3.30;;;2.40;;
7685;SDS011;3885;51.474;-2.576;2022-11-04T14:01:31;2.30;;;1.90;;
7685;SDS011;3885;51.474;-2.576;2022-11-04T14:04:16;2.80;;;1.50;;
7685;SDS011;3885;51.474;-2.576;2022-11-04T14:06:54;1.20;;;0.80;;
7685;SDS011;3885;51.474;-2.576;2022-11-04T14:09:34;4.80;;;0.97;;
7685;SDS011;3885;51.474;-2.576;2022-11-04T14:12:25;2.70;;;0.70;;
7685;SDS011;3885;51.474;-2.576;2022-11-04T14:15:14;0.77;;;0.70;;
7685;SDS011;3885;51.474;-2.576;2022-11-04T14:18:01;3.47;;;0.80;;
7685;SDS011;3885;51.474;-2.576;2022-11-04T14:20:30;1.27;;;0.93;;
7685;SDS011;3885;51.474;-2.576;2022-11-04T14:23:03;1.43;;;0.80;;
7685;SDS011;3885;51.474;-2.576;2022-11-04T14:25:33;1.27;;;0.90;;
7685;SDS011;3885;51.474;-2.576;2022-11-04T14:28:15;8.77;;;0.90;;
7685;SDS011;3885;51.474;-2.576;2022-11-04T14:30:48;7.53;;;0.73;;
7685;SDS011;3885;51.474;-2.576;2022-11-04T14:33:19;2.97;;;0.70;;
7685;SDS011;3885;51.474;-2.576;2022-11-04T14:38:56;0.73;;;0.73;;
7685;SDS011;3885;51.474;-2.576;2022-11-04T14:41:30;1.50;;;0.90;;
7685;SDS011;3885;51.474;-2.576;2022-11-04T14:44:14;0.90;;;0.80;;
7685;SDS011;3885;51.474;-2.576;2022-11-04T14:46:47;0.97;;;0.90;;
7685;SDS011;3885;51.474;-2.576;2022-11-04T14:49:27;0.90;;;0.80;;
7685;SDS011;3885;51.474;-2.576;2022-11-04T14:52:02;2.70;;;0.80;;
7685;SDS011;3885;51.474;-2.576;2022-11-04T14:54:31;6.90;;;1.00;;
7685;SDS011;3885;51.474;-2.576;2022-11-04T14:59:42;2.77;;;0.90;;
7685;SDS011;3885;51.474;-2.576;2022-11-04T15:02:14;3.07;;;0.80;;
7685;SDS011;3885;51.474;-2.576;2022-11-04T15:04:54;2.73;;;1.07;;
7685;SDS011;3885;51.474;-2.576;2022-11-04T15:07:32;15.70;;;1.10;;
7685;SDS011;3885;51.474;-2.576;2022-11-04T15:10:02;1.37;;;0.90;;
7685;SDS011;3885;51.474;-2.576;2022-11-04T15:12:44;0.77;;;0.77;;
7685;SDS011;3885;51.474;-2.576;2022-11-04T15:15:24;3.63;;;0.97;;
7685;SDS011;3885;51.474;-2.576;2022-11-04T15:17:55;15.13;;;1.10;;
7685;SDS011;3885;51.474;-2.576;2022-11-04T15:20:25;1.43;;;0.77;;
7685;SDS011;3885;51.474;-2.576;2022-11-04T15:22:54;1.13;;;0.90;;
7685;SDS011;3885;51.474;-2.576;2022-11-04T15:25:25;1.70;;;0.97;;
7685;SDS011;3885;51.474;-2.576;2022-11-04T15:27:52;1.30;;;0.90;;
7685;SDS011;3885;51.474;-2.576;2022-11-04T15:30:21;0.80;;;0.80;;
7685;SDS011;3885;51.474;-2.576;2022-11-04T15:32:53;1.33;;;0.77;;
7685;SDS011;3885;51.474;-2.576;2022-11-04T15:35:21;3.47;;;1.07;;
7685;SDS011;3885;51.474;-2.576;2022-11-04T15:37:49;1.57;;;1.20;;
7685;SDS011;3885;51.474;-2.576;2022-11-04T15:40:18;2.67;;;1.10;;
7685;SDS011;3885;51.474;-2.576;2022-11-04T15:42:47;6.60;;;1.20;;
7685;SDS011;3885;51.474;-2.576;2022-11-04T15:45:18;5.40;;;1.47;;
7685;SDS011;3885;51.474;-2.576;2022-11-04T15:50:50;10.33;;;2.77;;